createdAt,value
2023-01-30T00:00:02.172Z,14.8
2023-01-30T00:01:10.522Z,14.8
2023-01-30T00:02:19.108Z,15.2
2023-01-30T00:03:27.479Z,15.2
2023-01-30T00:04:35.807Z,15.2
2023-01-30T00:05:44.383Z,14.2
2023-01-30T00:06:52.747Z,14.2
2023-01-30T00:08:01.135Z,14.2
2023-01-30T00:09:09.684Z,15
2023-01-30T00:10:18.316Z,15
2023-01-30T00:11:26.398Z,15
2023-01-30T00:12:34.960Z,15.2
2023-01-30T00:13:43.301Z,15.2
2023-01-30T00:14:51.668Z,15.2
2023-01-30T00:16:00.282Z,14.8
2023-01-30T00:17:08.577Z,14.8
2023-01-30T00:18:16.921Z,14.8
2023-01-30T00:19:25.505Z,14.1
2023-01-30T00:20:33.871Z,14.1
2023-01-30T00:21:42.236Z,14.1
2023-01-30T00:23:00.352Z,14.4
2023-01-30T00:23:59.181Z,14.4
2023-01-30T00:25:07.618Z,14.4
2023-01-30T00:26:16.169Z,14.9
2023-01-30T00:27:24.463Z,14.9
2023-01-30T00:28:32.818Z,14.9
2023-01-30T00:29:41.389Z,15
2023-01-30T00:30:49.745Z,15
2023-01-30T00:31:58.115Z,15
2023-01-30T00:33:06.651Z,15.2
2023-01-30T00:34:15.008Z,15.2
2023-01-30T00:35:23.364Z,15.2
2023-01-30T00:36:31.914Z,15.9
2023-01-30T00:37:40.274Z,15.9
2023-01-30T00:38:48.631Z,15.9
2023-01-30T00:39:57.186Z,16.200001
2023-01-30T00:41:05.548Z,16.200001
2023-01-30T00:42:13.895Z,16.200001
2023-01-30T00:43:22.458Z,15.3
2023-01-30T00:44:30.823Z,15.3
2023-01-30T00:45:39.217Z,15.3
2023-01-30T00:46:47.726Z,16.1
2023-01-30T00:47:56.085Z,16.1
2023-01-30T00:49:04.438Z,16.1
2023-01-30T00:50:12.987Z,16.700001
2023-01-30T00:51:21.337Z,16.700001
2023-01-30T00:52:29.691Z,16.700001
2023-01-30T00:53:38.258Z,17.1
2023-01-30T00:54:46.641Z,17.1
2023-01-30T00:55:54.998Z,17.1
2023-01-30T00:57:03.557Z,16
2023-01-30T00:58:11.907Z,16
2023-01-30T00:59:20.272Z,16
2023-01-30T01:00:28.834Z,16.6
2023-01-30T01:01:37.239Z,16.6
2023-01-30T01:02:45.563Z,16.6
2023-01-30T01:03:54.138Z,15.6
2023-01-30T01:05:02.481Z,15.6
2023-01-30T01:06:10.835Z,15.6
2023-01-30T01:07:20.660Z,17.1
2023-01-30T01:08:27.786Z,17.1
2023-01-30T01:09:36.144Z,17.1
2023-01-30T01:10:44.729Z,17
2023-01-30T01:11:53.103Z,17
2023-01-30T01:13:01.440Z,17
2023-01-30T01:14:10.033Z,16.799999
2023-01-30T01:15:18.721Z,16.799999
2023-01-30T01:16:26.831Z,16.799999
2023-01-30T01:17:35.300Z,16.700001
2023-01-30T01:18:43.649Z,16.700001
2023-01-30T01:19:52.013Z,16.700001
2023-01-30T01:21:00.582Z,16.4
2023-01-30T01:22:08.935Z,16.4
2023-01-30T01:23:17.289Z,16.4
2023-01-30T01:24:25.861Z,17.1
2023-01-30T01:25:34.199Z,17.1
2023-01-30T01:26:42.622Z,17.1
2023-01-30T01:27:51.122Z,16.6
2023-01-30T01:28:59.517Z,16.6
2023-01-30T01:30:07.832Z,16.6
2023-01-30T01:31:16.467Z,16.299999
2023-01-30T01:32:24.740Z,16.299999
2023-01-30T01:33:33.103Z,16.299999
2023-01-30T01:34:41.684Z,15
2023-01-30T01:35:50.009Z,15
2023-01-30T01:36:58.370Z,15
2023-01-30T01:38:06.914Z,15.6
2023-01-30T01:39:15.305Z,15.6
2023-01-30T01:40:23.625Z,15.6
2023-01-30T01:41:32.212Z,15.6
2023-01-30T01:42:40.578Z,15.6
2023-01-30T01:43:48.919Z,15.6
2023-01-30T01:44:57.491Z,15.3
2023-01-30T01:46:05.881Z,15.3
2023-01-30T01:47:14.196Z,15.3
2023-01-30T01:48:22.757Z,13.7
2023-01-30T01:49:31.116Z,13.7
2023-01-30T01:50:39.480Z,13.7
2023-01-30T01:51:48.019Z,14.4
2023-01-30T01:52:56.369Z,14.4
2023-01-30T01:54:04.744Z,14.4
2023-01-30T01:55:13.289Z,15.9
2023-01-30T01:56:21.636Z,15.9
2023-01-30T01:57:29.976Z,15.9
2023-01-30T01:58:38.595Z,15
2023-01-30T01:59:46.948Z,15
2023-01-30T02:00:55.319Z,15
2023-01-30T02:02:03.962Z,16.1
2023-01-30T02:03:12.213Z,16.1
2023-01-30T02:04:20.592Z,16.1
2023-01-30T02:05:29.133Z,15
2023-01-30T02:06:37.493Z,15
2023-01-30T02:07:45.849Z,15
2023-01-30T02:08:54.435Z,14.6
2023-01-30T02:10:02.775Z,14.6
2023-01-30T02:11:11.153Z,14.6
2023-01-30T02:12:19.723Z,15.4
2023-01-30T02:13:28.057Z,15.4
2023-01-30T02:14:36.434Z,15.4
2023-01-30T02:15:44.985Z,16.200001
2023-01-30T02:16:53.366Z,16.200001
2023-01-30T02:18:01.706Z,16.200001
2023-01-30T02:19:10.268Z,16.6
2023-01-30T02:20:18.634Z,16.6
2023-01-30T02:21:27.000Z,16.6
2023-01-30T02:22:35.550Z,17.1
2023-01-30T02:23:43.894Z,17.1
2023-01-30T02:24:52.273Z,17.1
2023-01-30T02:26:00.817Z,16.5
2023-01-30T02:27:09.165Z,16.5
2023-01-30T02:28:17.523Z,16.5
2023-01-30T02:29:26.099Z,16.299999
2023-01-30T02:30:34.571Z,16.299999
2023-01-30T02:31:42.868Z,16.299999
2023-01-30T02:32:51.369Z,16.200001
2023-01-30T02:33:59.770Z,16.200001
2023-01-30T02:35:08.111Z,16.200001
2023-01-30T02:36:16.689Z,16.4
2023-01-30T02:37:25.022Z,16.4
2023-01-30T02:38:33.383Z,16.4
2023-01-30T02:39:41.954Z,17
2023-01-30T02:40:50.295Z,17
2023-01-30T02:41:58.649Z,17
2023-01-30T02:43:07.193Z,16
2023-01-30T02:44:15.580Z,16
2023-01-30T02:45:23.929Z,16
2023-01-30T02:46:32.477Z,16.299999
2023-01-30T02:47:40.836Z,16.299999
2023-01-30T02:48:49.204Z,16.299999
2023-01-30T02:49:57.779Z,13.9
2023-01-30T02:51:06.128Z,13.9
2023-01-30T02:52:14.960Z,13.9
2023-01-30T02:53:23.063Z,13.1
2023-01-30T02:54:31.430Z,13.1
2023-01-30T02:55:39.770Z,13.1
2023-01-30T02:56:48.356Z,11.9
2023-01-30T02:57:56.707Z,11.9
2023-01-30T02:59:05.052Z,11.9
2023-01-30T03:00:13.610Z,13.9
2023-01-30T03:01:22.001Z,13.9
2023-01-30T03:02:30.421Z,13.9
2023-01-30T03:03:38.891Z,12.4
2023-01-30T03:04:47.272Z,12.4
2023-01-30T03:05:55.618Z,12.4
2023-01-30T03:07:04.172Z,12.3
2023-01-30T03:08:12.525Z,12.3
2023-01-30T03:09:20.893Z,12.3
2023-01-30T03:10:29.483Z,11.8
2023-01-30T03:11:37.815Z,11.8
2023-01-30T03:12:46.203Z,11.8
2023-01-30T03:13:54.749Z,12.3
2023-01-30T03:15:03.098Z,12.3
2023-01-30T03:16:11.506Z,12.3
2023-01-30T03:17:20.018Z,12.5
2023-01-30T03:18:28.368Z,12.5
2023-01-30T03:19:36.726Z,12.5
2023-01-30T03:20:45.270Z,12.6
2023-01-30T03:21:53.620Z,12.6
2023-01-30T03:23:01.984Z,12.6
2023-01-30T03:24:10.582Z,12.9
2023-01-30T03:25:19.289Z,12.9
2023-01-30T03:26:27.297Z,12.9
2023-01-30T03:27:35.865Z,12.6
2023-01-30T03:28:44.219Z,12.6
2023-01-30T03:29:52.588Z,12.6
2023-01-30T03:31:01.239Z,12.7
2023-01-30T03:32:09.505Z,12.7
2023-01-30T03:33:17.833Z,12.7
2023-01-30T03:34:26.422Z,12
2023-01-30T03:35:34.779Z,12
2023-01-30T03:36:43.156Z,12
2023-01-30T03:37:51.679Z,12.8
2023-01-30T03:39:00.060Z,12.8
2023-01-30T03:40:08.437Z,12.8
2023-01-30T03:41:16.992Z,13.9
2023-01-30T03:42:25.377Z,13.9
2023-01-30T03:43:33.737Z,13.9
2023-01-30T03:44:42.321Z,13.7
2023-01-30T03:45:50.719Z,13.7
2023-01-30T03:46:59.048Z,13.7
2023-01-30T03:48:07.595Z,13
2023-01-30T03:49:15.981Z,13
2023-01-30T03:50:24.327Z,13
2023-01-30T03:51:32.874Z,13.5
2023-01-30T03:52:41.235Z,13.5
2023-01-30T03:53:49.646Z,13.5
2023-01-30T03:54:58.219Z,12.9
2023-01-30T03:56:06.607Z,12.9
2023-01-30T03:57:14.937Z,12.9
2023-01-30T03:58:23.487Z,11.3
2023-01-30T03:59:31.860Z,11.3
2023-01-30T04:00:40.281Z,11.3
2023-01-30T04:01:48.813Z,11
2023-01-30T04:02:57.175Z,11
2023-01-30T04:04:05.525Z,11
2023-01-30T04:05:14.106Z,10.6
2023-01-30T04:06:22.477Z,10.6
2023-01-30T04:07:30.829Z,10.6
2023-01-30T04:08:39.412Z,10.1
2023-01-30T04:09:47.787Z,10.1
2023-01-30T04:10:56.167Z,10.1
2023-01-30T04:12:04.727Z,9.2
2023-01-30T04:13:13.077Z,9.2
2023-01-30T04:14:21.438Z,9.2
2023-01-30T04:15:30.000Z,9.1
2023-01-30T04:16:38.387Z,9.1
2023-01-30T04:17:46.710Z,9.1
2023-01-30T04:18:55.319Z,9.2
2023-01-30T04:20:03.661Z,9.2
2023-01-30T04:21:12.023Z,9.2
2023-01-30T04:22:20.572Z,9.9
2023-01-30T04:23:28.929Z,9.9
2023-01-30T04:24:37.272Z,9.9
2023-01-30T04:25:45.830Z,10.6
2023-01-30T04:26:54.198Z,10.6
2023-01-30T04:28:02.537Z,10.6
2023-01-30T04:29:11.108Z,10.8
2023-01-30T04:30:19.505Z,10.8
2023-01-30T04:31:27.858Z,10.8
2023-01-30T04:32:36.406Z,11.1
2023-01-30T04:33:44.757Z,11.1
2023-01-30T04:34:53.242Z,11.1
2023-01-30T04:36:01.823Z,11.5
2023-01-30T04:37:10.211Z,11.5
2023-01-30T04:38:18.549Z,11.5
2023-01-30T04:39:27.139Z,12.3
2023-01-30T04:40:35.477Z,12.3
2023-01-30T04:41:43.890Z,12.3
2023-01-30T04:42:52.428Z,12
2023-01-30T04:44:00.808Z,12
2023-01-30T04:45:09.134Z,12
2023-01-30T04:46:17.700Z,12.2
2023-01-30T04:47:26.083Z,12.2
2023-01-30T04:48:34.401Z,12.2
2023-01-30T04:49:42.945Z,12.7
2023-01-30T04:50:51.321Z,12.7
2023-01-30T04:51:59.653Z,12.7
2023-01-30T04:53:08.199Z,12.3
2023-01-30T04:54:16.559Z,12.3
2023-01-30T04:55:24.887Z,12.3
2023-01-30T04:56:33.456Z,12.4
2023-01-30T04:57:41.810Z,12.4
2023-01-30T04:58:52.107Z,12.4
2023-01-30T05:00:00.675Z,13.2
2023-01-30T05:01:09.045Z,13.2
2023-01-30T05:02:17.436Z,13.2
2023-01-30T05:03:25.921Z,11.6
2023-01-30T05:04:34.294Z,11.6
2023-01-30T05:05:42.607Z,11.6
2023-01-30T05:06:51.155Z,11.6
2023-01-30T05:07:59.497Z,11.6
2023-01-30T05:09:07.867Z,11.6
2023-01-30T05:10:16.432Z,17.9
2023-01-30T05:11:24.780Z,17.9
2023-01-30T05:12:33.112Z,17.9
2023-01-30T05:13:41.660Z,14.9
2023-01-30T05:14:50.027Z,14.9
2023-01-30T05:15:58.568Z,14.9
2023-01-30T05:17:07.112Z,45
2023-01-30T05:18:15.431Z,45
2023-01-30T05:19:23.772Z,45
2023-01-30T05:20:32.424Z,11.1
2023-01-30T05:21:40.695Z,11.1
2023-01-30T05:22:49.038Z,11.1
2023-01-30T05:23:57.632Z,10.8
2023-01-30T05:25:10.471Z,10.8
2023-01-30T05:26:18.837Z,10.8
2023-01-30T05:27:27.370Z,10.4
2023-01-30T05:28:35.729Z,10.4
2023-01-30T05:29:44.078Z,10.4
2023-01-30T05:30:52.712Z,10.3
2023-01-30T05:32:01.029Z,10.3
2023-01-30T05:33:09.363Z,10.3
2023-01-30T05:34:17.948Z,7.7
2023-01-30T05:35:26.295Z,7.7
2023-01-30T05:36:34.672Z,7.7
2023-01-30T05:37:43.228Z,6.5
2023-01-30T05:38:51.565Z,6.5
2023-01-30T05:39:59.948Z,6.5
2023-01-30T05:41:08.478Z,6.5
2023-01-30T05:42:16.842Z,6.5
2023-01-30T05:43:25.214Z,6.5
2023-01-30T05:44:33.772Z,6
2023-01-30T05:45:42.125Z,6
2023-01-30T05:46:50.542Z,6
2023-01-30T05:48:01.502Z,5.8
2023-01-30T05:49:07.442Z,5.8
2023-01-30T05:50:15.802Z,5.8
2023-01-30T05:51:24.374Z,6.1
2023-01-30T05:52:32.711Z,6.1
2023-01-30T05:53:41.063Z,6.1
2023-01-30T05:54:49.671Z,6.1
2023-01-30T05:55:58.048Z,6.1
2023-01-30T05:57:06.397Z,6.1
2023-01-30T05:58:14.961Z,6.6
2023-01-30T05:59:23.325Z,6.6
2023-01-30T06:00:31.675Z,6.6
2023-01-30T06:01:40.276Z,6.4
2023-01-30T06:02:48.669Z,6.4
2023-01-30T06:03:57.036Z,6.4
2023-01-30T06:05:05.536Z,8.1
2023-01-30T06:06:13.950Z,8.1
2023-01-30T06:07:22.310Z,8.1
2023-01-30T06:08:30.884Z,7.5
2023-01-30T06:09:39.213Z,7.5
2023-01-30T06:10:47.607Z,7.5
2023-01-30T06:11:56.152Z,8.3
2023-01-30T06:13:04.525Z,8.3
2023-01-30T06:14:12.882Z,8.3
2023-01-30T06:15:21.475Z,23.4
2023-01-30T06:16:29.966Z,23.4
2023-01-30T06:17:38.243Z,23.4
2023-01-30T06:18:46.799Z,12.9
2023-01-30T06:19:55.169Z,12.9
2023-01-30T06:21:03.557Z,12.9
2023-01-30T06:22:12.107Z,8
2023-01-30T06:23:20.492Z,8
2023-01-30T06:24:28.868Z,8
2023-01-30T06:25:37.413Z,9.8
2023-01-30T06:26:45.893Z,9.8
2023-01-30T06:27:54.214Z,9.8
2023-01-30T06:29:02.820Z,6.5
2023-01-30T06:30:11.196Z,6.5
2023-01-30T06:31:19.546Z,6.5
2023-01-30T06:32:28.107Z,6.5
2023-01-30T06:33:36.431Z,6.5
2023-01-30T06:34:44.774Z,6.5
2023-01-30T06:35:53.343Z,10.1
2023-01-30T06:37:01.704Z,10.1
2023-01-30T06:38:10.081Z,10.1
2023-01-30T06:39:18.636Z,5.7
2023-01-30T06:40:27.048Z,5.7
2023-01-30T06:41:35.346Z,5.7
2023-01-30T06:42:43.906Z,9.4
2023-01-30T06:43:52.298Z,9.4
2023-01-30T06:45:00.708Z,9.4
2023-01-30T06:46:09.259Z,5.9
2023-01-30T06:47:17.576Z,5.9
2023-01-30T06:48:25.947Z,5.9
2023-01-30T06:49:34.503Z,6.6
2023-01-30T06:50:42.904Z,6.6
2023-01-30T06:51:51.255Z,6.6
2023-01-30T06:52:59.783Z,5.7
2023-01-30T06:54:08.154Z,5.7
2023-01-30T06:55:16.943Z,5.7
2023-01-30T06:56:25.136Z,6.7
2023-01-30T06:57:33.451Z,6.7
2023-01-30T06:58:41.804Z,6.7
2023-01-30T06:59:50.363Z,6.1
2023-01-30T07:00:58.734Z,6.1
2023-01-30T07:02:07.144Z,6.1
2023-01-30T07:03:16.105Z,5.7
2023-01-30T07:04:24.536Z,5.7
2023-01-30T07:05:32.829Z,5.7
2023-01-30T07:06:41.421Z,6.3
2023-01-30T07:07:49.842Z,6.3
2023-01-30T07:08:58.150Z,6.3
2023-01-30T07:10:08.741Z,7.3
2023-01-30T07:11:15.081Z,7.3
2023-01-30T07:12:23.477Z,7.3
2023-01-30T07:13:32.016Z,7.7
2023-01-30T07:14:40.356Z,7.7
2023-01-30T07:15:48.713Z,7.7
2023-01-30T07:16:57.340Z,10.2
2023-01-30T07:18:05.627Z,10.2
2023-01-30T07:19:14.008Z,10.2
2023-01-30T07:20:22.655Z,11.1
2023-01-30T07:21:31.000Z,11.1
2023-01-30T07:22:39.336Z,11.1
2023-01-30T07:23:47.896Z,12.7
2023-01-30T07:24:56.258Z,12.7
2023-01-30T07:26:04.684Z,12.7
2023-01-30T07:27:13.241Z,9.3
2023-01-30T07:28:21.629Z,9.3
2023-01-30T07:29:29.953Z,9.3
2023-01-30T07:30:38.571Z,6.4
2023-01-30T07:31:46.953Z,6.4
2023-01-30T07:32:55.235Z,6.4
2023-01-30T07:34:03.785Z,6.6
2023-01-30T07:35:12.154Z,6.6
2023-01-30T07:36:20.500Z,6.6
2023-01-30T07:37:29.061Z,5.3
2023-01-30T07:38:37.459Z,5.3
2023-01-30T07:39:45.828Z,5.3
2023-01-30T07:40:54.378Z,5.8
2023-01-30T07:42:02.738Z,5.8
2023-01-30T07:43:11.071Z,5.8
2023-01-30T07:44:19.650Z,5.4
2023-01-30T07:45:28.023Z,5.4
2023-01-30T07:46:36.402Z,5.4
2023-01-30T07:47:44.957Z,5.6
2023-01-30T07:48:53.292Z,5.6
2023-01-30T07:50:01.659Z,5.6
2023-01-30T07:51:10.276Z,5.2
2023-01-30T07:52:18.612Z,5.2
2023-01-30T07:53:26.982Z,5.2
2023-01-30T07:54:35.553Z,4.9
2023-01-30T07:55:43.908Z,4.9
2023-01-30T07:56:52.260Z,4.9
2023-01-30T07:58:00.823Z,5
2023-01-30T07:59:09.169Z,5
2023-01-30T08:00:17.932Z,5
2023-01-30T08:01:26.166Z,4.8
2023-01-30T08:02:34.474Z,4.8
2023-01-30T08:03:42.850Z,4.8
2023-01-30T08:04:51.491Z,4.7
2023-01-30T08:05:59.815Z,4.7
2023-01-30T08:07:08.153Z,4.7
2023-01-30T08:08:16.699Z,5.2
2023-01-30T08:09:25.091Z,5.2
2023-01-30T08:10:33.460Z,5.2
2023-01-30T08:11:42.095Z,4.8
2023-01-30T08:12:50.356Z,4.8
2023-01-30T08:13:58.738Z,4.8
2023-01-30T08:15:07.318Z,5.7
2023-01-30T08:16:15.704Z,5.7
2023-01-30T08:17:24.006Z,5.7
2023-01-30T08:18:32.583Z,4.5
2023-01-30T08:19:41.004Z,4.5
2023-01-30T08:20:49.326Z,4.5
2023-01-30T08:21:57.867Z,4.8
2023-01-30T08:23:06.215Z,4.8
2023-01-30T08:24:14.587Z,4.8
2023-01-30T08:25:23.181Z,3.9
2023-01-30T08:26:31.735Z,3.9
2023-01-30T08:27:40.007Z,3.9
2023-01-30T08:28:48.571Z,3.9
2023-01-30T08:29:56.937Z,3.9
2023-01-30T08:31:05.453Z,3.9
2023-01-30T08:32:14.880Z,3.7
2023-01-30T08:33:22.232Z,3.7
2023-01-30T08:34:30.583Z,3.7
2023-01-30T08:35:39.166Z,3.7
2023-01-30T08:36:47.595Z,3.7
2023-01-30T08:37:55.893Z,3.7
2023-01-30T08:39:04.470Z,3.7
2023-01-30T08:40:12.818Z,3.7
2023-01-30T08:41:21.177Z,3.7
2023-01-30T08:42:29.790Z,4.7
2023-01-30T08:43:38.144Z,4.7
2023-01-30T08:44:46.507Z,4.7
2023-01-30T08:45:55.111Z,7.1
2023-01-30T08:47:03.485Z,7.1
2023-01-30T08:48:11.850Z,7.1
2023-01-30T08:49:20.421Z,4.5
2023-01-30T08:50:28.753Z,4.5
2023-01-30T08:51:37.110Z,4.5
2023-01-30T08:52:45.677Z,8
2023-01-30T08:53:54.005Z,8
2023-01-30T08:55:02.363Z,8
2023-01-30T08:56:10.915Z,5.1
2023-01-30T08:57:19.280Z,5.1
2023-01-30T08:58:27.615Z,5.1
2023-01-30T08:59:36.224Z,4.3
2023-01-30T09:00:44.587Z,4.3
2023-01-30T09:01:52.945Z,4.3
2023-01-30T09:03:01.509Z,6.6
2023-01-30T09:04:09.880Z,6.6
2023-01-30T09:05:18.201Z,6.6
2023-01-30T09:06:26.762Z,12.8
2023-01-30T09:07:35.107Z,12.8
2023-01-30T09:08:43.450Z,12.8
2023-01-30T09:09:52.017Z,11.3
2023-01-30T09:11:00.386Z,11.3
2023-01-30T09:12:08.732Z,11.3
2023-01-30T09:13:17.285Z,10.3
2023-01-30T09:14:25.664Z,10.3
2023-01-30T09:15:34.030Z,10.3
2023-01-30T09:16:42.626Z,7.6
2023-01-30T09:17:50.930Z,7.6
2023-01-30T09:18:59.282Z,7.6
2023-01-30T09:20:07.864Z,8.6
2023-01-30T09:21:16.200Z,8.6
2023-01-30T09:22:27.359Z,8.6
2023-01-30T09:23:35.933Z,6.3
2023-01-30T09:24:44.283Z,6.3
2023-01-30T09:25:52.627Z,6.3
2023-01-30T09:27:01.178Z,3.7
2023-01-30T09:28:09.527Z,3.7
2023-01-30T09:29:17.888Z,3.7
2023-01-30T09:30:26.573Z,3.5
2023-01-30T09:31:34.964Z,3.5
2023-01-30T09:32:43.157Z,3.5
2023-01-30T09:33:51.706Z,6.5
2023-01-30T09:35:00.048Z,6.5
2023-01-30T09:36:08.414Z,6.5
2023-01-30T09:37:16.957Z,8
2023-01-30T09:38:25.280Z,8
2023-01-30T09:39:33.643Z,8
2023-01-30T09:40:42.186Z,7.4
2023-01-30T09:41:50.537Z,7.4
2023-01-30T09:42:58.882Z,7.4
2023-01-30T09:44:07.439Z,8.5
2023-01-30T09:45:15.778Z,8.5
2023-01-30T09:46:24.207Z,8.5
2023-01-30T09:47:32.707Z,31.5
2023-01-30T09:48:42.209Z,31.5
2023-01-30T09:49:49.403Z,31.5
2023-01-30T09:50:57.971Z,4.4
2023-01-30T09:52:06.351Z,4.4
2023-01-30T09:53:14.707Z,4.4
2023-01-30T09:54:23.243Z,16.1
2023-01-30T09:55:31.616Z,16.1
2023-01-30T09:56:39.972Z,16.1
2023-01-30T09:57:48.528Z,11.3
2023-01-30T09:58:56.888Z,11.3
2023-01-30T10:00:05.252Z,11.3
2023-01-30T10:01:13.787Z,11.8
2023-01-30T10:02:22.142Z,11.8
2023-01-30T10:03:30.508Z,11.8
2023-01-30T10:04:40.383Z,10.7
2023-01-30T10:05:47.410Z,10.7
2023-01-30T10:06:55.769Z,10.7
2023-01-30T10:08:04.312Z,5.6
2023-01-30T10:09:12.642Z,5.6
2023-01-30T10:10:21.031Z,5.6
2023-01-30T10:11:29.578Z,4.3
2023-01-30T10:12:37.943Z,4.3
2023-01-30T10:13:46.313Z,4.3
2023-01-30T10:14:54.843Z,13.3
2023-01-30T10:16:03.393Z,13.3
2023-01-30T10:17:11.550Z,13.3
2023-01-30T10:18:20.086Z,4.5
2023-01-30T10:19:35.510Z,4.5
2023-01-30T10:20:36.788Z,4.5
2023-01-30T10:21:45.325Z,4.7
2023-01-30T10:22:53.672Z,4.7
2023-01-30T10:24:02.042Z,4.7
2023-01-30T10:25:10.573Z,5.5
2023-01-30T10:26:18.938Z,5.5
2023-01-30T10:27:27.265Z,5.5
2023-01-30T10:28:35.820Z,4
2023-01-30T10:29:44.163Z,4
2023-01-30T10:30:52.823Z,4
2023-01-30T10:32:01.073Z,4.1
2023-01-30T10:33:09.418Z,4.1
2023-01-30T10:34:17.752Z,4.1
2023-01-30T10:35:27.313Z,8
2023-01-30T10:36:34.644Z,8
2023-01-30T10:37:42.994Z,8
2023-01-30T10:38:51.554Z,4.7
2023-01-30T10:39:59.930Z,4.7
2023-01-30T10:41:08.263Z,4.7
2023-01-30T10:42:16.819Z,4.2
2023-01-30T10:43:25.244Z,4.2
2023-01-30T10:44:33.585Z,4.2
2023-01-30T10:45:42.137Z,4.2
2023-01-30T10:46:50.671Z,4.2
2023-01-30T10:47:59.000Z,4.2
2023-01-30T10:49:07.683Z,4
2023-01-30T10:50:16.501Z,4
2023-01-30T10:51:24.416Z,4
2023-01-30T10:52:32.986Z,4.1
2023-01-30T10:53:41.336Z,4.1
2023-01-30T10:54:49.697Z,4.1
2023-01-30T10:55:58.263Z,4.4
2023-01-30T10:57:06.589Z,4.4
2023-01-30T10:58:14.920Z,4.4
2023-01-30T10:59:23.476Z,4.5
2023-01-30T11:00:31.828Z,4.5
2023-01-30T11:01:40.225Z,4.5
2023-01-30T11:02:51.440Z,3.9
2023-01-30T11:03:57.080Z,3.9
2023-01-30T11:05:05.443Z,3.9
2023-01-30T11:06:13.998Z,6
2023-01-30T11:07:22.356Z,6
2023-01-30T11:08:30.683Z,6
2023-01-30T11:09:39.250Z,4.5
2023-01-30T11:10:47.594Z,4.5
2023-01-30T11:11:55.962Z,4.5
2023-01-30T11:13:04.548Z,4.9
2023-01-30T11:14:12.903Z,4.9
2023-01-30T11:15:21.247Z,4.9
2023-01-30T11:16:29.839Z,4.8
2023-01-30T11:17:38.168Z,4.8
2023-01-30T11:19:55.068Z,7
2023-01-30T11:21:03.418Z,7
2023-01-30T11:22:13.798Z,7
2023-01-30T11:23:22.431Z,6.2
2023-01-30T11:24:31.900Z,6.2
2023-01-30T11:25:40.508Z,6.2
2023-01-30T11:26:49.105Z,6
2023-01-30T11:27:57.425Z,6
2023-01-30T11:29:05.804Z,6
2023-01-30T11:30:14.364Z,6
2023-01-30T11:31:35.181Z,6
2023-01-30T11:32:31.075Z,6
2023-01-30T11:33:39.607Z,6.4
2023-01-30T11:34:47.960Z,6.4
2023-01-30T11:35:56.321Z,6.4
2023-01-30T11:37:04.857Z,5.1
2023-01-30T11:38:13.203Z,5.1
2023-01-30T11:39:21.548Z,5.1
2023-01-30T11:40:30.098Z,4.8
2023-01-30T11:41:38.440Z,4.8
2023-01-30T11:42:46.803Z,4.8
2023-01-30T11:43:55.383Z,4.5
2023-01-30T11:45:16.449Z,4.5
2023-01-30T11:46:12.084Z,4.5
2023-01-30T11:47:20.612Z,4.6
2023-01-30T11:48:34.010Z,4.6
2023-01-30T11:49:47.196Z,4.6
2023-01-30T11:50:46.577Z,4.3
2023-01-30T11:51:54.257Z,4.3
2023-01-30T11:53:02.604Z,4.3
2023-01-30T11:54:11.147Z,4.1
2023-01-30T11:55:19.484Z,4.1
2023-01-30T11:56:27.831Z,4.1
2023-01-30T11:57:36.389Z,4
2023-01-30T11:58:44.725Z,4
2023-01-30T11:59:53.110Z,4
2023-01-30T12:01:01.634Z,3.6
2023-01-30T12:02:10.029Z,3.6
2023-01-30T12:03:18.404Z,3.6
2023-01-30T12:04:26.894Z,3.6
2023-01-30T12:05:35.275Z,3.6
2023-01-30T12:06:43.621Z,3.6
2023-01-30T12:07:52.197Z,3.6
2023-01-30T12:09:00.532Z,3.6
2023-01-30T12:10:08.903Z,3.6
2023-01-30T12:11:17.459Z,4
2023-01-30T12:12:25.808Z,4
2023-01-30T12:13:34.150Z,4
2023-01-30T12:14:44.377Z,3.3
2023-01-30T12:15:51.081Z,3.3
2023-01-30T12:16:59.421Z,3.3
2023-01-30T12:18:07.956Z,2.5
2023-01-30T12:19:16.292Z,2.5
2023-01-30T12:20:24.651Z,2.5
2023-01-30T12:21:33.208Z,2.5
2023-01-30T12:22:41.571Z,2.5
2023-01-30T12:23:49.908Z,2.5
2023-01-30T12:24:58.464Z,2.5
2023-01-30T12:26:06.807Z,2.5
2023-01-30T12:27:15.204Z,2.5
2023-01-30T12:28:23.761Z,2.2
2023-01-30T12:29:32.126Z,2.2
2023-01-30T12:30:42.988Z,2.2
2023-01-30T12:31:51.559Z,2.4
2023-01-30T12:34:08.228Z,2.4
2023-01-30T12:35:17.081Z,2.5
2023-01-30T12:36:25.121Z,2.5
2023-01-30T12:37:33.468Z,2.5
2023-01-30T12:38:42.016Z,2.2
2023-01-30T12:39:50.378Z,2.2
2023-01-30T12:40:58.749Z,2.2
2023-01-30T12:42:07.313Z,2.5
2023-01-30T12:43:15.671Z,2.5
2023-01-30T12:44:23.996Z,2.5
2023-01-30T12:45:32.866Z,2.4
2023-01-30T12:46:41.215Z,2.4
2023-01-30T12:47:49.589Z,2.4
2023-01-30T12:49:12.146Z,2.4
2023-01-30T12:50:06.523Z,2.4
2023-01-30T12:51:14.898Z,2.4
2023-01-30T12:52:23.450Z,2.3
2023-01-30T12:53:31.792Z,2.3
2023-01-30T12:54:40.159Z,2.3
2023-01-30T12:55:48.742Z,2.8
2023-01-30T12:56:57.074Z,2.8
2023-01-30T12:58:05.438Z,2.8
2023-01-30T12:59:13.993Z,2
2023-01-30T13:00:22.357Z,2
2023-01-30T13:01:30.725Z,2
2023-01-30T13:02:39.322Z,1.8
2023-01-30T13:03:47.663Z,1.8
2023-01-30T13:04:56.619Z,1.8
2023-01-30T13:06:04.551Z,2.2
2023-01-30T13:07:12.911Z,2.2
2023-01-30T13:08:21.262Z,2.2
2023-01-30T13:09:29.806Z,2.4
2023-01-30T13:10:38.173Z,2.4
2023-01-30T13:11:46.571Z,2.4
2023-01-30T13:12:55.127Z,2.2
2023-01-30T13:14:03.480Z,2.2
2023-01-30T13:15:11.844Z,2.2
2023-01-30T13:16:20.439Z,2.3
2023-01-30T13:17:28.768Z,2.3
2023-01-30T13:18:37.123Z,2.3
2023-01-30T13:19:45.725Z,2.7
2023-01-30T13:20:54.488Z,2.7
2023-01-30T13:22:03.790Z,2.7
2023-01-30T13:23:12.344Z,4.8
2023-01-30T13:24:20.695Z,4.8
2023-01-30T13:25:29.072Z,4.8
2023-01-30T13:26:37.742Z,3.1
2023-01-30T13:27:45.991Z,3.1
2023-01-30T13:28:54.366Z,3.1
2023-01-30T13:30:02.909Z,7.4
2023-01-30T13:31:11.418Z,7.4
2023-01-30T13:32:19.617Z,7.4
2023-01-30T13:33:28.169Z,9.9
2023-01-30T13:34:36.519Z,9.9
2023-01-30T13:35:44.888Z,9.9
2023-01-30T13:36:53.423Z,6.8
2023-01-30T13:38:01.789Z,6.8
2023-01-30T13:39:10.138Z,6.8
2023-01-30T13:40:19.102Z,6.5
2023-01-30T13:41:27.036Z,6.5
2023-01-30T13:42:35.394Z,6.5
2023-01-30T13:43:43.949Z,7.1
2023-01-30T13:44:52.302Z,7.1
2023-01-30T13:46:00.638Z,7.1
2023-01-30T13:47:09.238Z,4.9
2023-01-30T13:48:17.575Z,4.9
2023-01-30T13:49:25.939Z,4.9
2023-01-30T13:50:34.508Z,5.5
2023-01-30T13:51:42.882Z,5.5
2023-01-30T13:52:51.271Z,5.5
2023-01-30T13:53:59.824Z,3.3
2023-01-30T13:55:08.228Z,3.3
2023-01-30T13:56:38.312Z,3.3
2023-01-30T13:57:25.094Z,2.8
2023-01-30T13:58:33.449Z,2.8
2023-01-30T13:59:41.789Z,2.8
2023-01-30T14:00:50.379Z,3.5
2023-01-30T14:01:58.763Z,3.5
2023-01-30T14:03:07.034Z,3.5
2023-01-30T14:04:15.595Z,3.5
2023-01-30T14:05:28.192Z,3.5
2023-01-30T14:06:32.297Z,3.5
2023-01-30T14:07:41.077Z,3.5
2023-01-30T14:08:49.385Z,3.5
2023-01-30T14:09:57.726Z,3.5
2023-01-30T14:11:06.313Z,2.8
2023-01-30T14:12:14.716Z,2.8
2023-01-30T14:13:23.016Z,2.8
2023-01-30T14:14:31.577Z,2.5
2023-01-30T14:15:39.944Z,2.5
2023-01-30T14:16:48.307Z,2.5
2023-01-30T14:17:56.911Z,2.6
2023-01-30T14:19:05.219Z,2.6
2023-01-30T14:20:13.565Z,2.6
2023-01-30T14:21:22.153Z,2.8
2023-01-30T14:22:30.499Z,2.8
2023-01-30T14:23:38.868Z,2.8
2023-01-30T14:24:47.462Z,2.6
2023-01-30T14:25:55.844Z,2.6
2023-01-30T14:27:04.200Z,2.6
2023-01-30T14:28:12.740Z,3
2023-01-30T14:29:21.091Z,3
2023-01-30T14:30:29.443Z,3
2023-01-30T15:04:12.028Z,0
2023-01-30T15:05:20.845Z,0
2023-01-30T15:06:28.756Z,0
2023-01-30T15:07:37.331Z,3.6
2023-01-30T15:08:45.669Z,3.6
2023-01-30T15:09:54.036Z,3.6
2023-01-30T15:11:02.575Z,2.7
2023-01-30T15:12:10.945Z,2.7
2023-01-30T15:13:19.285Z,2.7
2023-01-30T15:14:27.832Z,3.3
2023-01-30T15:15:36.176Z,3.3
2023-01-30T15:16:44.597Z,3.3
2023-01-30T15:18:06.022Z,2.5
2023-01-30T15:19:01.426Z,2.5
2023-01-30T15:20:09.803Z,2.5
2023-01-30T15:21:18.312Z,2.8
2023-01-30T15:22:26.673Z,2.8
2023-01-30T15:23:35.081Z,2.8
2023-01-30T15:24:43.626Z,2.4
2023-01-30T15:25:51.957Z,2.4
2023-01-30T15:27:00.314Z,2.4
2023-01-30T15:28:08.891Z,2.5
2023-01-30T15:29:17.242Z,2.5
2023-01-30T15:30:25.619Z,2.5
2023-01-30T15:31:34.185Z,2.9
2023-01-30T15:32:42.518Z,2.9
2023-01-30T15:33:51.526Z,2.9
2023-01-30T15:35:00.114Z,4
2023-01-30T15:36:08.450Z,4
2023-01-30T15:37:16.784Z,4
2023-01-30T15:38:25.361Z,7.6
2023-01-30T15:39:33.691Z,7.6
2023-01-30T15:40:42.043Z,7.6
2023-01-30T15:41:50.596Z,10.7
2023-01-30T15:42:58.951Z,10.7
2023-01-30T15:44:07.296Z,10.7
2023-01-30T15:45:15.851Z,6.7
2023-01-30T15:46:24.267Z,6.7
2023-01-30T15:47:32.526Z,6.7
2023-01-30T15:48:41.075Z,3.9
2023-01-30T15:49:49.409Z,3.9
2023-01-30T15:50:57.763Z,3.9
2023-01-30T15:52:06.343Z,5.2
2023-01-30T15:53:14.656Z,5.2
2023-01-30T15:54:23.055Z,5.2
2023-01-30T15:55:31.621Z,4.4
2023-01-30T15:56:39.962Z,4.4
2023-01-30T15:57:48.315Z,4.4
2023-01-30T15:58:56.875Z,5.7
2023-01-30T16:00:05.201Z,5.7
2023-01-30T16:01:13.559Z,5.7
2023-01-30T16:02:22.193Z,4.9
2023-01-30T16:03:30.474Z,4.9
2023-01-30T16:04:38.839Z,4.9
2023-01-30T16:05:47.967Z,5